Time;durP1;ratioP1;P1;durP2;ratioP2;P2;SDS_P1;SDS_P2;PMS_P1;PMS_P2;Temp;Humidity;BMP_temperature;BMP_pressure;BME280_temperature;BME280_humidity;BME280_pressure;Samples;Min_cycle;Max_cycle;Signal;HPM_P1;HPM_P2
2022/03/31 00:00:52;;;;;;;59.65;23.90;;;;;;;;;;5033514;28;20045;-64
2022/03/31 00:03:22;;;;;;;52.80;24.17;;;;;;;;;;5033904;28;20323;-64
2022/03/31 00:05:50;;;;;;;55.10;23.60;;;;;;;;;;5033643;28;20449;-63
2022/03/31 00:08:19;;;;;;;60.65;24.45;;;;;;;;;;5033427;28;20049;-64
2022/03/31 00:10:48;;;;;;;60.08;24.92;;;;;;;;;;5033508;28;20049;-64
2022/03/31 00:13:18;;;;;;;63.55;24.85;;;;;;;;;;5033618;28;20054;-64
2022/03/31 00:15:47;;;;;;;61.50;24.85;;;;;;;;;;5033572;28;20053;-63
2022/03/31 00:18:15;;;;;;;58.85;24.75;;;;;;;;;;5033471;28;20080;-63
2022/03/31 00:34:10;;;;;;;64.43;26.55;;;;;;;;;;5033309;28;20168;-64
2022/03/31 00:36:36;;;;;;;71.00;26.98;;;;;;;;;;5032876;28;20061;-64
2022/03/31 00:41:53;;;;;;;69.55;26.23;;;;;;;;;;5022108;28;20159;-64
2022/03/31 00:44:20;;;;;;;61.55;25.83;;;;;;;;;;5032783;28;20508;-64
2022/03/31 00:46:49;;;;;;;73.47;28.55;;;;;;;;;;5032520;28;20045;-63
2022/03/31 00:49:18;;;;;;;72.88;28.88;;;;;;;;;;5032772;28;20052;-64
2022/03/31 00:51:45;;;;;;;66.50;25.10;;;;;;;;;;5032624;28;20046;-64
2022/03/31 00:54:14;;;;;;;59.38;25.75;;;;;;;;;;5032869;28;20091;-63
2022/03/31 00:56:42;;;;;;;72.40;28.40;;;;;;;;;;5032823;28;20048;-64
2022/03/31 00:59:12;;;;;;;66.68;26.42;;;;;;;;;;5033016;28;20478;-64
2022/03/31 01:01:40;;;;;;;66.50;27.42;;;;;;;;;;5032627;28;20506;-64
2022/03/31 01:04:08;;;;;;;67.15;26.73;;;;;;;;;;5032555;28;20046;-63
2022/03/31 01:06:37;;;;;;;70.13;26.67;;;;;;;;;;5032298;28;20056;-64
2022/03/31 01:09:05;;;;;;;69.97;25.77;;;;;;;;;;5032270;28;20049;-63
2022/03/31 01:11:33;;;;;;;65.03;24.73;;;;;;;;;;5031884;28;20468;-63
2022/03/31 01:14:01;;;;;;;62.53;25.42;;;;;;;;;;5032315;28;20053;-63
2022/03/31 01:16:30;;;;;;;68.75;27.27;;;;;;;;;;5032033;28;20175;-62
2022/03/31 01:18:58;;;;;;;66.22;26.15;;;;;;;;;;5032202;28;20057;-63
2022/03/31 01:21:25;;;;;;;63.97;25.75;;;;;;;;;;5032183;28;20045;-63
2022/03/31 01:23:55;;;;;;;67.88;29.05;;;;;;;;;;5034009;28;20045;-63
2022/03/31 01:26:22;;;;;;;61.20;25.95;;;;;;;;;;5033670;28;20050;-63
2022/03/31 01:28:50;;;;;;;70.32;27.80;;;;;;;;;;5032367;28;20095;-62
2022/03/31 01:31:17;;;;;;;63.03;26.85;;;;;;;;;;5032136;28;20054;-62
2022/03/31 01:33:44;;;;;;;63.10;25.23;;;;;;;;;;5032174;28;20457;-60
2022/03/31 01:36:12;;;;;;;63.97;24.92;;;;;;;;;;5031847;28;20049;-60
2022/03/31 01:38:39;;;;;;;68.88;26.90;;;;;;;;;;5031984;28;20053;-61
2022/03/31 01:41:08;;;;;;;65.20;24.85;;;;;;;;;;5032672;28;20127;-64
2022/03/31 01:43:35;;;;;;;61.47;24.80;;;;;;;;;;5032669;28;20180;-63
2022/03/31 01:46:02;;;;;;;61.25;25.75;;;;;;;;;;5032517;28;20502;-63
2022/03/31 01:48:30;;;;;;;59.53;24.42;;;;;;;;;;5032496;28;20045;-62
2022/03/31 01:50:57;;;;;;;62.58;24.33;;;;;;;;;;5032316;28;20076;-63
2022/03/31 01:53:24;;;;;;;60.50;23.27;;;;;;;;;;5031812;28;20053;-63
2022/03/31 01:55:51;;;;;;;56.38;22.50;;;;;;;;;;5031477;28;20100;-62
2022/03/31 01:58:20;;;;;;;58.22;21.77;;;;;;;;;;5032071;28;20045;-62
2022/03/31 02:00:47;;;;;;;57.90;22.65;;;;;;;;;;5031467;28;20045;-64
2022/03/31 02:03:14;;;;;;;58.53;23.30;;;;;;;;;;5031572;28;20049;-62
2022/03/31 02:05:41;;;;;;;57.50;24.63;;;;;;;;;;5031420;28;20059;-63
2022/03/31 02:08:08;;;;;;;59.05;23.05;;;;;;;;;;5031150;28;20064;-62
2022/03/31 02:10:36;;;;;;;62.33;25.48;;;;;;;;;;5031338;28;20536;-61
2022/03/31 02:13:03;;;;;;;57.65;25.13;;;;;;;;;;5031624;28;20124;-62
2022/03/31 02:15:32;;;;;;;53.70;22.77;;;;;;;;;;5031177;28;20049;-62
2022/03/31 02:18:01;;;;;;;52.00;22.85;;;;;;;;;;5031415;28;20057;-62
2022/03/31 02:20:28;;;;;;;54.60;23.65;;;;;;;;;;5031083;28;20048;-63
2022/03/31 02:22:55;;;;;;;50.58;21.48;;;;;;;;;;5030784;28;20413;-62
2022/03/31 02:25:23;;;;;;;56.92;22.80;;;;;;;;;;5030926;28;20660;-62
2022/03/31 02:27:52;;;;;;;62.40;23.23;;;;;;;;;;5031074;28;20041;-63
2022/03/31 02:30:20;;;;;;;56.15;23.08;;;;;;;;;;5030802;28;20128;-63
2022/03/31 02:32:49;;;;;;;57.47;23.73;;;;;;;;;;5030879;28;20053;-63
2022/03/31 02:35:16;;;;;;;59.30;24.92;;;;;;;;;;5030655;28;20426;-63
2022/03/31 02:37:43;;;;;;;56.83;24.02;;;;;;;;;;5030632;28;20060;-63
2022/03/31 02:40:10;;;;;;;51.70;21.58;;;;;;;;;;5030533;28;20075;-63
2022/03/31 02:42:37;;;;;;;59.15;23.95;;;;;;;;;;5030784;28;20049;-62
2022/03/31 02:45:06;;;;;;;59.83;23.27;;;;;;;;;;5030412;28;20052;-62
2022/03/31 02:47:34;;;;;;;58.33;23.08;;;;;;;;;;5030534;28;20168;-63
2022/03/31 02:50:04;;;;;;;56.55;23.02;;;;;;;;;;5030750;28;20076;-63
2022/03/31 02:55:24;;;;;;;48.22;21.20;;;;;;;;;;5030714;28;20050;-63
2022/03/31 02:55:26;;;;;;;51.78;21.45;;;;;;;;;;5030178;28;20053;-63
2022/03/31 02:57:53;;;;;;;57.25;22.20;;;;;;;;;;5030440;28;20048;-63
2022/03/31 03:00:20;;;;;;;53.30;21.17;;;;;;;;;;5030421;28;20042;-63
2022/03/31 03:02:47;;;;;;;57.83;24.50;;;;;;;;;;5030457;28;20050;-63
2022/03/31 03:05:16;;;;;;;54.65;23.75;;;;;;;;;;5030348;28;20064;-62
2022/03/31 03:07:43;;;;;;;55.80;23.15;;;;;;;;;;5030046;28;20045;-62
2022/03/31 03:10:10;;;;;;;58.35;22.88;;;;;;;;;;5030488;28;20100;-62
2022/03/31 03:12:37;;;;;;;53.22;23.23;;;;;;;;;;5030247;28;20049;-62
2022/03/31 03:15:05;;;;;;;56.35;22.88;;;;;;;;;;5030215;28;20056;-62
2022/03/31 03:17:32;;;;;;;51.95;21.80;;;;;;;;;;5030186;28;20057;-62
2022/03/31 03:19:59;;;;;;;51.80;21.23;;;;;;;;;;5030388;28;20411;-62
2022/03/31 03:22:28;;;;;;;60.58;24.60;;;;;;;;;;5030082;28;20047;-62
2022/03/31 03:24:54;;;;;;;62.97;23.88;;;;;;;;;;5030099;28;20049;-62
2022/03/31 03:27:21;;;;;;;57.78;22.00;;;;;;;;;;5028165;28;20049;-62
2022/03/31 03:29:48;;;;;;;55.75;22.02;;;;;;;;;;5030089;28;20670;-62
2022/03/31 03:32:16;;;;;;;55.35;22.70;;;;;;;;;;5030156;28;20087;-62
2022/03/31 03:34:43;;;;;;;60.47;23.40;;;;;;;;;;5030007;28;20065;-63
2022/03/31 03:37:10;;;;;;;58.53;23.40;;;;;;;;;;5029874;28;20045;-62
2022/03/31 03:39:38;;;;;;;54.92;22.80;;;;;;;;;;5030045;28;20518;-63
2022/03/31 03:42:07;;;;;;;59.92;23.08;;;;;;;;;;5029944;28;20045;-62
2022/03/31 03:44:34;;;;;;;58.90;23.92;;;;;;;;;;5029740;28;20053;-62
2022/03/31 03:47:01;;;;;;;61.60;24.52;;;;;;;;;;5029876;28;20057;-62
2022/03/31 03:49:28;;;;;;;68.88;25.17;;;;;;;;;;5029774;28;20085;-61
2022/03/31 03:51:55;;;;;;;71.78;27.05;;;;;;;;;;5030039;28;20057;-62
2022/03/31 03:54:22;;;;;;;70.03;25.65;;;;;;;;;;5029942;28;20045;-62
2022/03/31 03:56:50;;;;;;;69.97;26.38;;;;;;;;;;5029708;28;20100;-62
2022/03/31 03:59:17;;;;;;;70.72;27.10;;;;;;;;;;5029698;28;20045;-62
2022/03/31 04:01:44;;;;;;;70.25;27.10;;;;;;;;;;5029826;28;20061;-63
2022/03/31 04:04:12;;;;;;;80.60;27.35;;;;;;;;;;5029721;28;20085;-63
2022/03/31 04:06:39;;;;;;;75.55;26.90;;;;;;;;;;5029835;28;20395;-63
2022/03/31 04:09:06;;;;;;;76.47;26.10;;;;;;;;;;5029693;28;20136;-62
2022/03/31 04:11:33;;;;;;;79.05;29.52;;;;;;;;;;5029872;28;20049;-62
2022/03/31 04:14:01;;;;;;;78.60;26.63;;;;;;;;;;5029953;28;20433;-63
2022/03/31 04:16:28;;;;;;;87.35;29.52;;;;;;;;;;5029595;28;20414;-62
2022/03/31 04:18:55;;;;;;;78.57;28.73;;;;;;;;;;5029686;28;20559;-62
2022/03/31 04:21:22;;;;;;;81.05;29.60;;;;;;;;;;5029516;28;20049;-62
2022/03/31 04:23:49;;;;;;;75.30;25.25;;;;;;;;;;5029620;28;20086;-61
2022/03/31 04:26:16;;;;;;;76.38;27.40;;;;;;;;;;5029305;28;20061;-62
2022/03/31 04:28:43;;;;;;;84.85;29.77;;;;;;;;;;5029409;28;20048;-62
2022/03/31 04:31:11;;;;;;;91.75;30.85;;;;;;;;;;5029446;28;20053;-61
2022/03/31 04:33:38;;;;;;;89.32;30.02;;;;;;;;;;5029479;28;20057;-61
2022/03/31 04:36:06;;;;;;;90.05;31.42;;;;;;;;;;5029341;28;20052;-62
2022/03/31 04:38:33;;;;;;;81.10;28.95;;;;;;;;;;5029346;28;20387;-62
2022/03/31 04:40:59;;;;;;;78.53;29.15;;;;;;;;;;5029284;28;20128;-62
2022/03/31 04:43:26;;;;;;;83.70;27.92;;;;;;;;;;5029327;28;20045;-62
2022/03/31 04:45:54;;;;;;;77.43;28.27;;;;;;;;;;5031341;28;20057;-64
2022/03/31 04:48:22;;;;;;;80.70;29.65;;;;;;;;;;5033141;28;20049;-63
2022/03/31 04:50:49;;;;;;;81.78;29.63;;;;;;;;;;5032792;28;20048;-62
2022/03/31 04:53:17;;;;;;;82.13;28.65;;;;;;;;;;5032868;28;20325;-62
2022/03/31 04:55:44;;;;;;;73.20;27.80;;;;;;;;;;5032592;28;20080;-61
2022/03/31 04:58:12;;;;;;;78.75;28.98;;;;;;;;;;5032729;28;20052;-61
2022/03/31 05:00:38;;;;;;;88.88;28.63;;;;;;;;;;5032762;28;20069;-61
2022/03/31 05:03:06;;;;;;;79.22;28.05;;;;;;;;;;5032658;28;20053;-62
2022/03/31 05:05:34;;;;;;;79.45;29.08;;;;;;;;;;5032571;28;20045;-62
2022/03/31 05:08:02;;;;;;;75.05;27.30;;;;;;;;;;5032566;28;20050;-62
2022/03/31 05:10:29;;;;;;;73.93;27.48;;;;;;;;;;5032402;28;20085;-62
2022/03/31 05:12:56;;;;;;;78.43;28.25;;;;;;;;;;5032692;28;20529;-62
2022/03/31 05:15:23;;;;;;;69.50;26.00;;;;;;;;;;5032436;28;20429;-61
2022/03/31 05:17:50;;;;;;;76.55;28.50;;;;;;;;;;5032558;28;20129;-62
2022/03/31 05:20:18;;;;;;;79.10;30.08;;;;;;;;;;5032754;28;20426;-62
2022/03/31 05:22:46;;;;;;;71.28;26.63;;;;;;;;;;5033572;28;20052;-63
2022/03/31 05:25:13;;;;;;;80.22;29.55;;;;;;;;;;5032945;28;20041;-63
2022/03/31 05:27:44;;;;;;;69.00;26.50;;;;;;;;;;5032956;28;20053;-63
2022/03/31 05:30:12;;;;;;;71.20;27.52;;;;;;;;;;5032568;28;20342;-63
2022/03/31 05:32:39;;;;;;;76.68;28.02;;;;;;;;;;5032725;28;20049;-63
2022/03/31 05:35:08;;;;;;;79.25;27.83;;;;;;;;;;5032488;28;20251;-63
2022/03/31 05:37:35;;;;;;;78.15;27.83;;;;;;;;;;5032163;28;20414;-63
2022/03/31 05:40:05;;;;;;;74.10;27.33;;;;;;;;;;5032250;28;20045;-62
2022/03/31 05:42:33;;;;;;;82.47;30.03;;;;;;;;;;5032682;28;20045;-62
2022/03/31 05:45:00;;;;;;;71.78;26.85;;;;;;;;;;5042276;23;20049;-69
2022/03/31 05:47:27;;;;;;;82.95;28.05;;;;;;;;;;5032758;28;20055;-70
2022/03/31 05:49:54;;;;;;;75.75;28.42;;;;;;;;;;5032672;28;20061;-70
2022/03/31 05:52:21;;;;;;;72.07;28.17;;;;;;;;;;5032714;28;20529;-69
2022/03/31 05:54:49;;;;;;;80.22;28.17;;;;;;;;;;5032538;28;20067;-69
2022/03/31 05:57:18;;;;;;;74.82;29.10;;;;;;;;;;5032309;28;20049;-70
2022/03/31 05:59:45;;;;;;;84.03;30.33;;;;;;;;;;5032204;28;20049;-70
2022/03/31 06:02:12;;;;;;;77.82;27.38;;;;;;;;;;5032866;28;20087;-69
2022/03/31 06:04:39;;;;;;;83.18;30.88;;;;;;;;;;5032479;28;20050;-69
2022/03/31 06:07:07;;;;;;;76.38;29.33;;;;;;;;;;5031923;28;20053;-70
2022/03/31 06:09:34;;;;;;;80.97;29.92;;;;;;;;;;5032960;28;20061;-70
2022/03/31 06:12:00;;;;;;;82.20;29.50;;;;;;;;;;5032251;28;20050;-69
2022/03/31 06:14:29;;;;;;;94.18;33.55;;;;;;;;;;5032961;28;20050;-69
2022/03/31 06:16:56;;;;;;;75.82;29.20;;;;;;;;;;5032317;28;20057;-69
2022/03/31 06:19:23;;;;;;;85.35;31.67;;;;;;;;;;5032000;28;20068;-69
2022/03/31 06:21:50;;;;;;;82.32;32.85;;;;;;;;;;5031879;28;20490;-70
2022/03/31 06:24:17;;;;;;;89.00;32.30;;;;;;;;;;5032285;28;20050;-69
2022/03/31 06:26:44;;;;;;;85.20;30.65;;;;;;;;;;5031950;28;20049;-68
2022/03/31 06:29:12;;;;;;;75.20;31.33;;;;;;;;;;5032729;28;20046;-70
2022/03/31 06:31:41;;;;;;;80.70;30.00;;;;;;;;;;5031911;28;20053;-69
2022/03/31 06:34:08;;;;;;;81.78;32.13;;;;;;;;;;5031823;28;20057;-69
2022/03/31 06:36:36;;;;;;;79.07;29.13;;;;;;;;;;5031739;28;20049;-69
2022/03/31 06:39:03;;;;;;;79.43;30.15;;;;;;;;;;5031532;28;20057;-69
2022/03/31 06:41:30;;;;;;;76.22;28.95;;;;;;;;;;5031829;28;20054;-69
2022/03/31 06:43:57;;;;;;;80.45;30.80;;;;;;;;;;5032191;28;20045;-69
2022/03/31 06:46:25;;;;;;;84.90;33.92;;;;;;;;;;5031256;28;20049;-69
2022/03/31 06:48:53;;;;;;;81.82;33.63;;;;;;;;;;5031461;28;20057;-69
2022/03/31 06:51:23;;;;;;;85.75;32.78;;;;;;;;;;5031762;28;20049;-69
2022/03/31 06:53:50;;;;;;;82.23;32.60;;;;;;;;;;5031493;28;20057;-69
2022/03/31 06:56:18;;;;;;;72.55;26.90;;;;;;;;;;5031530;28;20085;-69
2022/03/31 06:58:45;;;;;;;74.40;29.75;;;;;;;;;;5031653;28;20506;-69
2022/03/31 07:01:12;;;;;;;74.93;29.15;;;;;;;;;;5030481;28;20053;-69
2022/03/31 07:03:39;;;;;;;74.32;28.63;;;;;;;;;;5031022;28;20080;-69
2022/03/31 07:06:08;;;;;;;67.35;27.00;;;;;;;;;;5030843;28;20425;-69
2022/03/31 07:08:35;;;;;;;64.80;25.60;;;;;;;;;;5030551;28;20049;-69
2022/03/31 07:11:03;;;;;;;64.15;26.33;;;;;;;;;;5031152;28;20061;-69
2022/03/31 07:13:30;;;;;;;60.55;25.30;;;;;;;;;;5030890;28;20083;-69
2022/03/31 07:15:57;;;;;;;60.72;26.73;;;;;;;;;;5030795;28;20064;-69
2022/03/31 07:18:24;;;;;;;65.15;27.75;;;;;;;;;;5030801;28;20076;-69
2022/03/31 07:20:52;;;;;;;58.78;25.55;;;;;;;;;;5031150;28;20080;-70
2022/03/31 07:23:23;;;;;;;59.85;26.80;;;;;;;;;;5031136;28;20051;-69
2022/03/31 07:25:50;;;;;;;53.28;24.05;;;;;;;;;;5030619;28;20061;-69
2022/03/31 07:28:17;;;;;;;66.80;31.00;;;;;;;;;;5030924;28;20062;-69
2022/03/31 07:30:44;;;;;;;61.42;28.92;;;;;;;;;;5030670;28;20049;-70
2022/03/31 07:33:11;;;;;;;57.83;24.42;;;;;;;;;;5031170;28;20399;-69
2022/03/31 07:35:39;;;;;;;60.92;25.25;;;;;;;;;;5030945;28;20116;-68
2022/03/31 07:38:07;;;;;;;65.97;29.08;;;;;;;;;;5031195;28;20156;-70
2022/03/31 07:40:37;;;;;;;58.33;26.15;;;;;;;;;;5030726;28;20049;-70
2022/03/31 07:43:04;;;;;;;56.58;25.45;;;;;;;;;;5031349;28;20045;-69
2022/03/31 07:45:34;;;;;;;53.88;24.55;;;;;;;;;;5030369;28;20065;-69
2022/03/31 07:48:01;;;;;;;54.03;23.73;;;;;;;;;;5030392;28;20049;-68
2022/03/31 07:50:28;;;;;;;55.55;23.55;;;;;;;;;;5030643;28;20082;-69
2022/03/31 07:52:56;;;;;;;48.42;22.65;;;;;;;;;;5030642;28;20045;-69
2022/03/31 07:55:24;;;;;;;49.75;23.35;;;;;;;;;;5030418;28;20060;-69
2022/03/31 07:57:53;;;;;;;46.78;21.85;;;;;;;;;;5030519;28;20057;-70
2022/03/31 08:00:21;;;;;;;43.80;21.05;;;;;;;;;;5031020;28;20057;-70
2022/03/31 08:02:49;;;;;;;51.00;21.95;;;;;;;;;;5030534;28;20115;-71
2022/03/31 08:05:18;;;;;;;45.33;22.98;;;;;;;;;;5030470;28;20045;-70
2022/03/31 08:07:45;;;;;;;45.13;22.00;;;;;;;;;;5030232;28;20045;-70
2022/03/31 08:10:12;;;;;;;43.33;20.63;;;;;;;;;;5030475;28;20420;-70
2022/03/31 08:12:40;;;;;;;42.25;22.05;;;;;;;;;;5030307;28;20049;-69
2022/03/31 08:15:12;;;;;;;44.85;20.08;;;;;;;;;;5029911;28;20053;-70
2022/03/31 08:17:39;;;;;;;47.05;22.27;;;;;;;;;;5030490;28;20122;-70
2022/03/31 08:20:08;;;;;;;47.17;22.45;;;;;;;;;;5030979;28;20049;-70
2022/03/31 08:22:35;;;;;;;40.00;19.42;;;;;;;;;;5033959;28;20100;-70
2022/03/31 08:25:03;;;;;;;42.58;20.10;;;;;;;;;;5034100;28;20053;-68
2022/03/31 08:27:32;;;;;;;41.38;20.77;;;;;;;;;;5033875;28;20049;-68
2022/03/31 08:29:59;;;;;;;44.60;21.88;;;;;;;;;;5034428;28;20487;-69
2022/03/31 08:32:27;;;;;;;43.50;19.92;;;;;;;;;;5034000;28;20058;-70
2022/03/31 08:34:54;;;;;;;44.70;20.80;;;;;;;;;;5033479;28;20061;-69
2022/03/31 08:37:21;;;;;;;43.05;21.70;;;;;;;;;;5033931;28;20046;-70
2022/03/31 08:39:48;;;;;;;47.25;21.33;;;;;;;;;;5033742;28;20056;-70
2022/03/31 08:42:15;;;;;;;42.58;20.88;;;;;;;;;;5033482;28;20532;-70
2022/03/31 08:44:41;;;;;;;46.10;21.20;;;;;;;;;;5033669;28;20081;-70
2022/03/31 08:47:09;;;;;;;49.63;21.17;;;;;;;;;;5033821;28;20045;-70
2022/03/31 08:49:38;;;;;;;45.20;23.33;;;;;;;;;;5033330;28;20057;-69
2022/03/31 08:52:06;;;;;;;46.63;22.55;;;;;;;;;;5033185;28;20129;-70
2022/03/31 08:54:33;;;;;;;45.85;21.10;;;;;;;;;;5033288;28;20053;-69
2022/03/31 08:56:59;;;;;;;46.90;22.70;;;;;;;;;;5033121;28;20057;-68
2022/03/31 08:59:27;;;;;;;53.47;23.15;;;;;;;;;;5033271;28;20060;-69
2022/03/31 09:01:54;;;;;;;45.38;21.33;;;;;;;;;;5033275;28;20064;-71
2022/03/31 09:04:22;;;;;;;44.15;20.70;;;;;;;;;;5033268;28;20144;-70
2022/03/31 09:07:01;;;;;;;40.35;19.00;;;;;;;;;;5032840;28;20061;-68
2022/03/31 09:09:29;;;;;;;41.73;19.50;;;;;;;;;;5033155;28;20091;-69
2022/03/31 09:11:56;;;;;;;39.05;21.30;;;;;;;;;;5033403;28;20130;-69
2022/03/31 09:14:29;;;;;;;40.58;20.77;;;;;;;;;;5032827;28;20053;-70
2022/03/31 09:16:56;;;;;;;37.92;19.80;;;;;;;;;;5032909;28;20061;-69
2022/03/31 09:19:24;;;;;;;43.20;20.48;;;;;;;;;;5033009;28;20073;-70
2022/03/31 09:21:53;;;;;;;42.85;20.83;;;;;;;;;;5032934;28;20060;-69
2022/03/31 09:24:23;;;;;;;41.55;20.30;;;;;;;;;;5033172;28;20418;-68
2022/03/31 09:26:52;;;;;;;42.58;21.05;;;;;;;;;;5014783;28;20065;-68
2022/03/31 09:29:20;;;;;;;42.95;20.27;;;;;;;;;;5012914;28;20490;-68
2022/03/31 09:31:48;;;;;;;40.15;19.08;;;;;;;;;;5012629;28;20112;-69
2022/03/31 09:34:15;;;;;;;43.40;19.75;;;;;;;;;;5012468;28;20061;-69
2022/03/31 09:36:48;;;;;;;38.80;17.75;;;;;;;;;;5012574;28;20886;-69
2022/03/31 09:39:17;;;;;;;38.55;19.88;;;;;;;;;;5012463;28;20046;-70
2022/03/31 09:41:47;;;;;;;36.42;17.35;;;;;;;;;;5013380;28;20141;-70
2022/03/31 09:44:16;;;;;;;38.33;20.13;;;;;;;;;;5014382;28;20054;-69
2022/03/31 09:46:45;;;;;;;50.78;26.50;;;;;;;;;;5033905;28;20080;-70
2022/03/31 09:49:14;;;;;;;44.83;22.75;;;;;;;;;;5033728;28;20411;-72
2022/03/31 09:51:42;;;;;;;35.25;18.98;;;;;;;;;;5033861;28;20037;-72
2022/03/31 09:54:09;;;;;;;36.70;18.42;;;;;;;;;;5032594;28;20064;-69
2022/03/31 09:56:39;;;;;;;37.10;18.55;;;;;;;;;;5032674;28;20058;-69
2022/03/31 09:59:08;;;;;;;32.10;17.27;;;;;;;;;;5032278;28;20132;-69
2022/03/31 10:01:36;;;;;;;39.83;19.02;;;;;;;;;;5031665;28;20437;-69
2022/03/31 10:04:05;;;;;;;34.78;18.88;;;;;;;;;;5031892;28;20075;-69
2022/03/31 10:06:34;;;;;;;37.83;18.95;;;;;;;;;;5031987;28;20080;-69
2022/03/31 10:09:01;;;;;;;37.45;18.65;;;;;;;;;;5032134;28;20053;-69
2022/03/31 10:11:30;;;;;;;38.45;18.42;;;;;;;;;;5032236;28;20140;-69
2022/03/31 10:14:08;;;;;;;35.95;17.42;;;;;;;;;;5030793;28;20052;-70
2022/03/31 10:16:44;;;;;;;35.55;17.92;;;;;;;;;;5011165;28;20064;-69
2022/03/31 10:19:11;;;;;;;38.85;18.15;;;;;;;;;;5013011;28;20530;-69
2022/03/31 10:21:38;;;;;;;39.63;19.20;;;;;;;;;;5012098;28;20085;-69
2022/03/31 10:27:01;;;;;;;39.28;18.10;;;;;;;;;;5012017;28;20057;-69
2022/03/31 10:29:38;;;;;;;40.67;20.30;;;;;;;;;;5011885;28;20060;-70
2022/03/31 10:32:19;;;;;;;38.05;18.08;;;;;;;;;;5011622;28;20062;-70
2022/03/31 10:34:48;;;;;;;40.97;19.95;;;;;;;;;;5011998;28;20080;-69
2022/03/31 10:37:18;;;;;;;36.53;19.27;;;;;;;;;;5011614;28;20108;-69
2022/03/31 10:39:56;;;;;;;38.17;19.23;;;;;;;;;;5011970;28;20434;-68
2022/03/31 10:42:23;;;;;;;36.30;16.92;;;;;;;;;;5011760;28;20506;-70
2022/03/31 10:45:12;;;;;;;38.58;18.45;;;;;;;;;;5016939;28;20042;-70
2022/03/31 10:47:40;;;;;;;42.08;18.05;;;;;;;;;;5031490;28;20085;-68
2022/03/31 10:50:09;;;;;;;39.35;18.77;;;;;;;;;;5031077;28;20051;-69
2022/03/31 10:52:36;;;;;;;42.50;19.75;;;;;;;;;;5031444;28;20096;-68
2022/03/31 10:55:09;;;;;;;45.92;20.77;;;;;;;;;;5031707;28;20056;-68
2022/03/31 10:57:41;;;;;;;39.92;19.40;;;;;;;;;;5031369;28;20053;-68
2022/03/31 11:00:12;;;;;;;40.42;19.15;;;;;;;;;;5031506;28;20061;-68
2022/03/31 11:02:44;;;;;;;46.65;23.83;;;;;;;;;;5030810;28;20140;-68
2022/03/31 11:05:11;;;;;;;37.97;19.55;;;;;;;;;;5031265;28;20111;-69
2022/03/31 11:07:42;;;;;;;34.13;16.20;;;;;;;;;;5031659;28;20053;-68
2022/03/31 11:10:11;;;;;;;40.28;18.92;;;;;;;;;;5031658;28;20045;-68
2022/03/31 11:12:39;;;;;;;38.42;17.77;;;;;;;;;;5031058;28;20057;-68
2022/03/31 11:15:15;;;;;;;36.28;17.48;;;;;;;;;;5030922;28;20042;-68
2022/03/31 11:17:43;;;;;;;39.15;17.77;;;;;;;;;;5030954;28;20046;-69
2022/03/31 11:20:17;;;;;;;42.50;18.55;;;;;;;;;;5030772;28;20045;-69
2022/03/31 11:22:48;;;;;;;36.22;17.13;;;;;;;;;;5031303;28;20091;-70
2022/03/31 11:25:16;;;;;;;34.75;17.35;;;;;;;;;;5030909;28;20045;-69
2022/03/31 11:27:46;;;;;;;33.65;16.05;;;;;;;;;;5030109;28;20494;-68
2022/03/31 11:30:18;;;;;;;38.83;17.70;;;;;;;;;;5030257;28;20053;-68
2022/03/31 11:32:48;;;;;;;36.03;15.77;;;;;;;;;;5031095;28;20053;-68
2022/03/31 11:35:17;;;;;;;36.13;17.93;;;;;;;;;;5030662;28;20053;-69
2022/03/31 11:37:46;;;;;;;34.40;16.40;;;;;;;;;;5030718;28;20085;-69
2022/03/31 11:40:14;;;;;;;36.22;16.58;;;;;;;;;;5030047;28;20053;-68
2022/03/31 11:42:45;;;;;;;34.72;17.23;;;;;;;;;;5021180;28;20080;-69
2022/03/31 11:45:33;;;;;;;34.97;15.38;;;;;;;;;;5030528;28;20099;-70
2022/03/31 11:48:02;;;;;;;36.95;17.60;;;;;;;;;;5031123;28;20053;-69
2022/03/31 11:50:31;;;;;;;36.45;17.05;;;;;;;;;;5031238;28;20513;-69
2022/03/31 11:53:00;;;;;;;35.47;17.20;;;;;;;;;;5030647;28;20049;-68
2022/03/31 11:55:27;;;;;;;33.25;16.05;;;;;;;;;;5034510;28;20491;-69
2022/03/31 11:57:55;;;;;;;33.65;16.73;;;;;;;;;;5057097;22;20050;-82
2022/03/31 12:00:26;;;;;;;33.10;17.58;;;;;;;;;;5025028;28;20049;-81
2022/03/31 12:03:07;;;;;;;34.95;16.85;;;;;;;;;;5022788;28;20453;-82
2022/03/31 12:05:34;;;;;;;34.28;16.65;;;;;;;;;;5023762;28;20428;-82
2022/03/31 12:08:08;;;;;;;35.80;16.38;;;;;;;;;;5022798;28;20058;-81
2022/03/31 12:10:35;;;;;;;32.67;16.23;;;;;;;;;;5023002;28;20046;-82
2022/03/31 12:13:04;;;;;;;31.65;14.13;;;;;;;;;;5027368;28;20053;-82
2022/03/31 12:15:35;;;;;;;34.08;16.05;;;;;;;;;;5025769;28;20555;-83
2022/03/31 12:18:05;;;;;;;30.35;14.93;;;;;;;;;;5026115;28;20432;-83
2022/03/31 12:20:34;;;;;;;32.63;14.98;;;;;;;;;;5024303;28;20049;-81
2022/03/31 12:23:01;;;;;;;30.80;15.48;;;;;;;;;;5024055;28;20054;-82
2022/03/31 12:25:33;;;;;;;29.73;15.45;;;;;;;;;;5023865;28;20049;-81
2022/03/31 12:28:04;;;;;;;25.63;13.23;;;;;;;;;;5024043;28;20073;-82
2022/03/31 12:30:43;;;;;;;31.02;13.63;;;;;;;;;;5024230;28;20524;-81
2022/03/31 12:33:21;;;;;;;25.65;13.13;;;;;;;;;;5025111;28;20057;-81
2022/03/31 12:35:55;;;;;;;27.27;13.25;;;;;;;;;;5024928;28;20088;-80
2022/03/31 12:38:33;;;;;;;26.33;13.35;;;;;;;;;;5023898;28;20057;-80
2022/03/31 12:41:00;;;;;;;26.13;13.85;;;;;;;;;;5010354;28;20045;-82
2022/03/31 12:43:28;;;;;;;30.15;13.52;;;;;;;;;;5013198;28;20069;-82
2022/03/31 12:45:56;;;;;;;25.88;14.00;;;;;;;;;;5009277;28;20050;-82
2022/03/31 12:48:25;;;;;;;27.42;14.45;;;;;;;;;;5010586;28;20062;-82
2022/03/31 12:51:01;;;;;;;24.73;12.60;;;;;;;;;;5002905;28;20097;-82
2022/03/31 12:53:38;;;;;;;24.75;13.32;;;;;;;;;;5004464;28;20050;-80
2022/03/31 12:56:05;;;;;;;24.17;12.43;;;;;;;;;;5003327;28;20046;-80
2022/03/31 12:58:36;;;;;;;25.70;12.82;;;;;;;;;;5014382;28;20054;-81
2022/03/31 13:01:05;;;;;;;21.80;11.35;;;;;;;;;;5016965;28;20573;-81
2022/03/31 13:03:32;;;;;;;23.98;12.38;;;;;;;;;;5023586;28;20108;-80
2022/03/31 13:06:01;;;;;;;23.92;11.57;;;;;;;;;;5022923;28;20046;-80
2022/03/31 13:08:32;;;;;;;23.83;12.32;;;;;;;;;;5011402;28;20509;-81
2022/03/31 13:10:59;;;;;;;23.25;11.98;;;;;;;;;;4999305;28;20042;-80
2022/03/31 13:13:26;;;;;;;27.15;13.52;;;;;;;;;;4999598;28;20046;-81
2022/03/31 13:15:53;;;;;;;23.70;11.70;;;;;;;;;;5000779;28;20078;-80
2022/03/31 13:18:21;;;;;;;23.35;11.35;;;;;;;;;;4998940;28;20065;-81
2022/03/31 13:20:50;;;;;;;24.48;11.32;;;;;;;;;;5000541;28;20498;-82
2022/03/31 13:23:17;;;;;;;23.88;11.88;;;;;;;;;;5009027;28;20101;-82
2022/03/31 13:25:46;;;;;;;22.20;11.27;;;;;;;;;;5004734;28;20129;-81
2022/03/31 13:28:13;;;;;;;21.67;12.07;;;;;;;;;;5006665;28;20069;-81
2022/03/31 13:30:40;;;;;;;22.98;12.32;;;;;;;;;;5010881;28;20053;-80
2022/03/31 13:33:07;;;;;;;23.90;12.30;;;;;;;;;;5019238;28;20457;-81
2022/03/31 13:35:36;;;;;;;24.00;12.90;;;;;;;;;;5019016;28;20050;-81
2022/03/31 13:38:03;;;;;;;25.42;12.93;;;;;;;;;;5017289;28;20042;-79
2022/03/31 13:40:31;;;;;;;24.85;12.25;;;;;;;;;;5018030;28;20501;-80
2022/03/31 13:42:58;;;;;;;25.48;12.48;;;;;;;;;;5004796;28;20061;-82
2022/03/31 13:45:25;;;;;;;25.55;12.30;;;;;;;;;;5015004;28;20042;-80
2022/03/31 13:47:55;;;;;;;22.90;10.52;;;;;;;;;;5002523;28;20419;-80
2022/03/31 13:50:22;;;;;;;19.83;9.57;;;;;;;;;;4998793;28;20125;-84
2022/03/31 13:55:31;;;;;;;23.70;10.90;;;;;;;;;;5004290;28;20094;-80
2022/03/31 14:01:10;;;;;;;26.08;14.52;;;;;;;;;;5002450;28;20045;-81
2022/03/31 14:03:39;;;;;;;22.90;11.63;;;;;;;;;;5023082;28;20049;-80
2022/03/31 14:06:06;;;;;;;22.35;11.40;;;;;;;;;;5016737;28;20044;-80
2022/03/31 14:08:35;;;;;;;23.90;11.77;;;;;;;;;;5018730;28;20049;-80
2022/03/31 14:11:04;;;;;;;21.52;10.93;;;;;;;;;;5018501;28;20108;-81
2022/03/31 14:13:31;;;;;;;22.25;10.88;;;;;;;;;;5018667;28;20073;-81
2022/03/31 14:16:00;;;;;;;22.63;11.13;;;;;;;;;;5017641;28;20053;-79
2022/03/31 14:18:29;;;;;;;24.25;12.23;;;;;;;;;;5017718;28;20076;-78
2022/03/31 14:20:56;;;;;;;22.98;11.23;;;;;;;;;;5016962;28;20497;-80
2022/03/31 14:23:23;;;;;;;20.80;10.02;;;;;;;;;;5017260;28;20053;-80
2022/03/31 14:25:54;;;;;;;20.23;10.18;;;;;;;;;;5000368;28;20154;-80
2022/03/31 14:28:21;;;;;;;22.73;11.10;;;;;;;;;;5006503;28;20109;-79
2022/03/31 14:30:48;;;;;;;19.17;10.57;;;;;;;;;;5005562;28;20052;-79
2022/03/31 14:33:15;;;;;;;21.38;11.20;;;;;;;;;;4996863;28;20078;-79
2022/03/31 14:35:42;;;;;;;20.27;10.40;;;;;;;;;;5002436;28;20108;-79
2022/03/31 14:38:09;;;;;;;23.85;11.35;;;;;;;;;;5005088;28;20081;-78
2022/03/31 14:40:36;;;;;;;24.33;11.63;;;;;;;;;;5012754;28;20046;-82
2022/03/31 14:43:05;;;;;;;22.10;10.38;;;;;;;;;;5005707;28;20050;-79
2022/03/31 14:45:33;;;;;;;23.80;11.32;;;;;;;;;;5006956;28;20097;-79
2022/03/31 14:48:00;;;;;;;26.58;14.38;;;;;;;;;;5016204;28;20116;-79